الصفحة الرئيسية
METAR-TAF:

METAR-TAF

مطار :

Portage Glacier, ألاسكا, الولايات المتحدة

دائرة عرض: 60-47N, خط طول: 148-50W, ارتفاع: 29 متر

مراقبة الطقس الحالي

تاريخ ووقت الإصدار 11 دقيقة قبل الساعة 17:53UTC
ريح 8 عقدة من الشرق/الجنوب الشرقي تتزايد حتى 19 عقدة
درجة الحرارة -2°درجة مئوية
الرطوبة 54%
ضغط 1017 hPa
الرؤية: 16.1 كم
ملبد بالغيوم على ارتفاع 3400 قدم

METAR: PATO 041753Z AUTO 12008G19KT 10SM OVC034 M02/M10 A3002 RMK AO2 SLP166 T10221100 11022 21033 58004 TSNO

زمن: 09:04 (18:04 UTC)


TAF: مفقودة

أرصاد الطقس والتوقعات من أكثر من 4000 مطار (تقارير الطقس للمطار METAR والتنبؤ بالطقس بالمطارTAF).

المحطات المتاحة هي النقط الصفراء والحمراء على الخريطة.

حرك المؤشر فوق النقطة لمعرفة اسم المحطة.

ثم انقر لمعرفة أرصاد وتوقعات الطقس.

لتغيير الخارطة: اضغط على الأزرار الخضراء مع رمز الصليب الأسود للتكبير. على الزر الأخضر مع شرطة للتصغير، أو على الأسهم الخضراء للخرائط المجاورة.


METAR-TAF: